KUIL/UIL METAR and TAF weather

Enter ICAO airport designator
Station Type Date Time Source
KUIL METAR 2019/10/23 08:13 UTC NOAA

KUIL 230813Z AUTO 09004KT 10SM BKN016 07/06 A3046 RMK AO2 T00670061


Station Type Date Time Source
KUIL Decoded METAR 2019/10/23 08:13 UTC NOAA

QUILLAYUTE STATE AIRPORT, WA, United States (KUIL) 47-56N 124-34W 54M
Oct 23, 2019 - 04:13 AM EDT / 2019.10.23 0813 UTC
Wind: from the E (090 degrees) at 5 MPH (4 KT):0
Visibility: 10 mile(s):0
Sky conditions: mostly cloudy
Temperature: 44.1 F (6.7 C)
Dew Point: 43.0 F (6.1 C)
Relative Humidity: 95%
Pressure (altimeter): 30.46 in. Hg (1031 hPa)
ob: KUIL 230813Z AUTO 09004KT 10SM BKN016 07/06 A3046 RMK AO2 T00670061
cycle: 8

Station Type Date Time Source
KUIL TAF UTC NOAA

Error!

Example: see airport list